sensor_id;sensor_type;location;lat;lon;timestamp;temperature;humidity
71291;DHT22;59073;51.994;4.448;2022-12-05T00:01:35;4.17;84.69
71291;DHT22;59073;51.994;4.448;2022-12-05T00:04:05;4.09;84.60
71291;DHT22;59073;51.994;4.448;2022-12-05T00:06:33;4.15;84.53
71291;DHT22;59073;51.994;4.448;2022-12-05T00:08:59;4.07;84.53
71291;DHT22;59073;51.994;4.448;2022-12-05T00:11:30;4.10;84.73
71291;DHT22;59073;51.994;4.448;2022-12-05T00:13:58;3.98;85.03
71291;DHT22;59073;51.994;4.448;2022-12-05T00:16:25;4.05;84.91
71291;DHT22;59073;51.994;4.448;2022-12-05T00:18:51;4.12;84.77
71291;DHT22;59073;51.994;4.448;2022-12-05T00:21:22;4.22;84.49
71291;DHT22;59073;51.994;4.448;2022-12-05T00:23:48;4.23;84.39
71291;DHT22;59073;51.994;4.448;2022-12-05T00:26:14;4.26;84.21
71291;DHT22;59073;51.994;4.448;2022-12-05T00:28:40;4.32;83.78
71291;DHT22;59073;51.994;4.448;2022-12-05T00:31:11;4.29;83.97
71291;DHT22;59073;51.994;4.448;2022-12-05T00:33:37;4.33;84.07
71291;DHT22;59073;51.994;4.448;2022-12-05T00:36:06;4.26;83.97
71291;DHT22;59073;51.994;4.448;2022-12-05T00:38:31;4.34;83.75
71291;DHT22;59073;51.994;4.448;2022-12-05T00:41:02;4.28;84.18
71291;DHT22;59073;51.994;4.448;2022-12-05T00:43:28;4.34;83.96
71291;DHT22;59073;51.994;4.448;2022-12-05T00:45:53;4.42;83.88
71291;DHT22;59073;51.994;4.448;2022-12-05T00:48:19;4.43;83.85
71291;DHT22;59073;51.994;4.448;2022-12-05T00:50:44;4.40;83.87
71291;DHT22;59073;51.994;4.448;2022-12-05T00:53:10;4.42;83.89
71291;DHT22;59073;51.994;4.448;2022-12-05T00:55:36;4.50;83.62
71291;DHT22;59073;51.994;4.448;2022-12-05T00:58:02;4.44;84.06
71291;DHT22;59073;51.994;4.448;2022-12-05T01:00:27;4.44;84.06
71291;DHT22;59073;51.994;4.448;2022-12-05T01:02:54;4.53;83.89
71291;DHT22;59073;51.994;4.448;2022-12-05T01:05:19;4.47;83.86
71291;DHT22;59073;51.994;4.448;2022-12-05T01:07:45;4.42;84.16
71291;DHT22;59073;51.994;4.448;2022-12-05T01:10:10;4.46;84.08
71291;DHT22;59073;51.994;4.448;2022-12-05T01:12:36;4.44;84.19
71291;DHT22;59073;51.994;4.448;2022-12-05T01:15:01;4.49;84.43
71291;DHT22;59073;51.994;4.448;2022-12-05T01:17:27;4.53;84.22
71291;DHT22;59073;51.994;4.448;2022-12-05T01:19:52;4.46;84.75
71291;DHT22;59073;51.994;4.448;2022-12-05T01:22:17;4.53;84.51
71291;DHT22;59073;51.994;4.448;2022-12-05T01:24:43;4.50;84.74
71291;DHT22;59073;51.994;4.448;2022-12-05T01:27:08;4.58;84.48
71291;DHT22;59073;51.994;4.448;2022-12-05T01:29:34;4.50;84.71
71291;DHT22;59073;51.994;4.448;2022-12-05T01:31:59;4.60;84.60
71291;DHT22;59073;51.994;4.448;2022-12-05T01:34:24;4.54;85.01
71291;DHT22;59073;51.994;4.448;2022-12-05T01:36:50;4.58;84.50
71291;DHT22;59073;51.994;4.448;2022-12-05T01:39:16;4.53;85.01
71291;DHT22;59073;51.994;4.448;2022-12-05T01:41:45;4.61;85.10
71291;DHT22;59073;51.994;4.448;2022-12-05T01:46:47;4.65;84.68
71291;DHT22;59073;51.994;4.448;2022-12-05T01:49:18;4.61;85.11
71291;DHT22;59073;51.994;4.448;2022-12-05T01:51:48;4.70;84.96
71291;DHT22;59073;51.994;4.448;2022-12-05T01:54:16;4.75;85.09
71291;DHT22;59073;51.994;4.448;2022-12-05T01:56:48;4.71;85.04
71291;DHT22;59073;51.994;4.448;2022-12-05T01:59:16;4.63;85.23
71291;DHT22;59073;51.994;4.448;2022-12-05T02:01:43;4.57;85.57
71291;DHT22;59073;51.994;4.448;2022-12-05T02:04:09;4.56;85.68
71291;DHT22;59073;51.994;4.448;2022-12-05T02:06:35;4.67;85.48
71291;DHT22;59073;51.994;4.448;2022-12-05T02:09:01;4.74;85.07
71291;DHT22;59073;51.994;4.448;2022-12-05T02:11:29;4.70;85.23
71291;DHT22;59073;51.994;4.448;2022-12-05T02:22:33;4.74;85.55
71291;DHT22;59073;51.994;4.448;2022-12-05T02:28:13;4.74;85.68
71291;DHT22;59073;51.994;4.448;2022-12-05T02:30:55;4.87;85.36
71291;DHT22;59073;51.994;4.448;2022-12-05T02:33:46;4.83;85.44
71291;DHT22;59073;51.994;4.448;2022-12-05T02:36:22;4.85;85.50
71291;DHT22;59073;51.994;4.448;2022-12-05T02:39:09;4.84;85.42
71291;DHT22;59073;51.994;4.448;2022-12-05T02:42:03;4.84;85.72
71291;DHT22;59073;51.994;4.448;2022-12-05T02:44:36;4.91;85.38
71291;DHT22;59073;51.994;4.448;2022-12-05T02:47:07;4.91;85.47
71291;DHT22;59073;51.994;4.448;2022-12-05T02:49:35;4.80;85.79
71291;DHT22;59073;51.994;4.448;2022-12-05T02:52:07;4.89;85.39
71291;DHT22;59073;51.994;4.448;2022-12-05T02:54:37;4.92;85.89
71291;DHT22;59073;51.994;4.448;2022-12-05T02:57:06;4.78;86.10
71291;DHT22;59073;51.994;4.448;2022-12-05T02:59:32;4.85;86.20
71291;DHT22;59073;51.994;4.448;2022-12-05T03:01:57;4.81;86.08
71291;DHT22;59073;51.994;4.448;2022-12-05T03:04:24;4.75;86.32
71291;DHT22;59073;51.994;4.448;2022-12-05T03:06:56;4.88;86.36
71291;DHT22;59073;51.994;4.448;2022-12-05T03:12:19;4.70;86.75
71291;DHT22;59073;51.994;4.448;2022-12-05T03:14:48;4.75;86.81
71291;DHT22;59073;51.994;4.448;2022-12-05T03:17:24;4.85;86.39
71291;DHT22;59073;51.994;4.448;2022-12-05T03:22:56;4.78;86.88
71291;DHT22;59073;51.994;4.448;2022-12-05T03:25:34;4.83;86.68
71291;DHT22;59073;51.994;4.448;2022-12-05T03:28:13;4.87;86.80
71291;DHT22;59073;51.994;4.448;2022-12-05T03:30:46;4.84;87.09
71291;DHT22;59073;51.994;4.448;2022-12-05T03:33:27;4.83;86.99
71291;DHT22;59073;51.994;4.448;2022-12-05T03:36:04;4.91;87.02
71291;DHT22;59073;51.994;4.448;2022-12-05T03:38:40;4.77;87.27
71291;DHT22;59073;51.994;4.448;2022-12-05T03:41:23;4.80;87.59
71291;DHT22;59073;51.994;4.448;2022-12-05T03:43:58;4.88;87.17
71291;DHT22;59073;51.994;4.448;2022-12-05T03:46:35;4.78;87.61
71291;DHT22;59073;51.994;4.448;2022-12-05T03:49:26;4.75;87.88
71291;DHT22;59073;51.994;4.448;2022-12-05T03:52:03;4.85;87.59
71291;DHT22;59073;51.994;4.448;2022-12-05T03:54:36;4.81;87.59
71291;DHT22;59073;51.994;4.448;2022-12-05T03:57:16;4.85;87.26
71291;DHT22;59073;51.994;4.448;2022-12-05T03:59:59;4.85;87.66
71291;DHT22;59073;51.994;4.448;2022-12-05T04:02:51;4.85;87.42
71291;DHT22;59073;51.994;4.448;2022-12-05T04:05:34;4.80;87.78
71291;DHT22;59073;51.994;4.448;2022-12-05T04:08:12;4.91;87.62
71291;DHT22;59073;51.994;4.448;2022-12-05T04:10:45;4.95;87.33
71291;DHT22;59073;51.994;4.448;2022-12-05T04:13:29;4.96;87.27
71291;DHT22;59073;51.994;4.448;2022-12-05T04:16:16;4.96;87.43
71291;DHT22;59073;51.994;4.448;2022-12-05T04:19:54;4.89;87.30
71291;DHT22;59073;51.994;4.448;2022-12-05T04:22:14;5.07;86.97
71291;DHT22;59073;51.994;4.448;2022-12-05T04:24:40;5.07;86.97
71291;DHT22;59073;51.994;4.448;2022-12-05T04:32:40;5.22;86.54
71291;DHT22;59073;51.994;4.448;2022-12-05T04:35:23;5.18;86.87
71291;DHT22;59073;51.994;4.448;2022-12-05T04:37:53;5.26;86.50
71291;DHT22;59073;51.994;4.448;2022-12-05T04:40:48;5.25;86.21
71291;DHT22;59073;51.994;4.448;2022-12-05T04:43:19;5.11;86.97
71291;DHT22;59073;51.994;4.448;2022-12-05T04:45:48;5.12;86.65
71291;DHT22;59073;51.994;4.448;2022-12-05T04:48:17;5.21;86.62
71291;DHT22;59073;51.994;4.448;2022-12-05T04:50:46;5.21;86.36
71291;DHT22;59073;51.994;4.448;2022-12-05T04:53:15;5.22;86.71
71291;DHT22;59073;51.994;4.448;2022-12-05T04:55:46;5.18;86.94
71291;DHT22;59073;51.994;4.448;2022-12-05T04:58:17;5.26;86.68
71291;DHT22;59073;51.994;4.448;2022-12-05T05:03:26;5.40;86.38
71291;DHT22;59073;51.994;4.448;2022-12-05T05:05:55;5.33;86.68
71291;DHT22;59073;51.994;4.448;2022-12-05T05:08:24;5.33;86.71
71291;DHT22;59073;51.994;4.448;2022-12-05T05:11:08;5.32;86.78
71291;DHT22;59073;51.994;4.448;2022-12-05T05:13:37;5.50;86.63
71291;DHT22;59073;51.994;4.448;2022-12-05T05:16:03;5.55;86.37
71291;DHT22;59073;51.994;4.448;2022-12-05T05:18:29;5.55;86.46
71291;DHT22;59073;51.994;4.448;2022-12-05T05:20:55;5.53;86.48
71291;DHT22;59073;51.994;4.448;2022-12-05T05:23:20;5.56;86.12
71291;DHT22;59073;51.994;4.448;2022-12-05T05:25:51;5.56;86.21
71291;DHT22;59073;51.994;4.448;2022-12-05T05:28:17;5.66;86.12
71291;DHT22;59073;51.994;4.448;2022-12-05T05:30:42;5.66;86.20
71291;DHT22;59073;51.994;4.448;2022-12-05T05:33:07;5.67;86.18
71291;DHT22;59073;51.994;4.448;2022-12-05T05:35:36;5.63;86.16
71291;DHT22;59073;51.994;4.448;2022-12-05T05:38:02;5.67;85.93
71291;DHT22;59073;51.994;4.448;2022-12-05T05:40:27;5.81;85.91
71291;DHT22;59073;51.994;4.448;2022-12-05T05:42:52;5.84;85.23
71291;DHT22;59073;51.994;4.448;2022-12-05T05:45:18;5.80;85.83
71291;DHT22;59073;51.994;4.448;2022-12-05T05:47:44;5.76;85.64
71291;DHT22;59073;51.994;4.448;2022-12-05T05:50:10;5.73;85.99
71291;DHT22;59073;51.994;4.448;2022-12-05T05:52:36;5.70;86.11
71291;DHT22;59073;51.994;4.448;2022-12-05T05:55:03;5.83;85.81
71291;DHT22;59073;51.994;4.448;2022-12-05T05:57:30;5.83;85.84
71291;DHT22;59073;51.994;4.448;2022-12-05T05:59:55;5.83;85.73
71291;DHT22;59073;51.994;4.448;2022-12-05T06:02:21;5.83;86.10
71291;DHT22;59073;51.994;4.448;2022-12-05T06:04:47;5.84;85.82
71291;DHT22;59073;51.994;4.448;2022-12-05T06:07:12;5.80;86.10
71291;DHT22;59073;51.994;4.448;2022-12-05T06:09:38;5.86;85.89
71291;DHT22;59073;51.994;4.448;2022-12-05T06:12:03;5.87;86.14
71291;DHT22;59073;51.994;4.448;2022-12-05T06:14:31;5.89;86.06
71291;DHT22;59073;51.994;4.448;2022-12-05T06:16:56;5.78;86.42
71291;DHT22;59073;51.994;4.448;2022-12-05T06:19:22;5.90;86.44
71291;DHT22;59073;51.994;4.448;2022-12-05T06:21:49;5.98;85.78
71291;DHT22;59073;51.994;4.448;2022-12-05T06:24:15;5.97;86.03
71291;DHT22;59073;51.994;4.448;2022-12-05T06:26:41;5.93;86.10
71291;DHT22;59073;51.994;4.448;2022-12-05T06:29:09;6.08;85.92
71291;DHT22;59073;51.994;4.448;2022-12-05T06:31:35;5.91;86.10
71291;DHT22;59073;51.994;4.448;2022-12-05T06:34:21;6.03;86.00
71291;DHT22;59073;51.994;4.448;2022-12-05T06:36:49;6.05;85.87
71291;DHT22;59073;51.994;4.448;2022-12-05T06:39:15;6.04;86.03
71291;DHT22;59073;51.994;4.448;2022-12-05T06:41:40;6.05;85.94
71291;DHT22;59073;51.994;4.448;2022-12-05T06:44:06;6.05;86.04
71291;DHT22;59073;51.994;4.448;2022-12-05T06:46:31;6.04;85.86
71291;DHT22;59073;51.994;4.448;2022-12-05T06:48:59;6.01;86.12
71291;DHT22;59073;51.994;4.448;2022-12-05T06:51:29;6.01;86.30
71291;DHT22;59073;51.994;4.448;2022-12-05T06:54:16;6.05;86.04
71291;DHT22;59073;51.994;4.448;2022-12-05T06:56:47;6.08;86.03
71291;DHT22;59073;51.994;4.448;2022-12-05T07:02:28;6.15;85.74
71291;DHT22;59073;51.994;4.448;2022-12-05T07:05:08;6.11;85.91
71291;DHT22;59073;51.994;4.448;2022-12-05T07:07:34;6.13;86.05
71291;DHT22;59073;51.994;4.448;2022-12-05T07:10:00;6.17;85.67
71291;DHT22;59073;51.994;4.448;2022-12-05T07:12:25;6.18;85.72
71291;DHT22;59073;51.994;4.448;2022-12-05T07:14:51;6.17;85.72
71291;DHT22;59073;51.994;4.448;2022-12-05T07:17:18;6.22;85.82
71291;DHT22;59073;51.994;4.448;2022-12-05T07:19:46;6.20;85.64
71291;DHT22;59073;51.994;4.448;2022-12-05T07:22:13;6.29;85.46
71291;DHT22;59073;51.994;4.448;2022-12-05T07:24:38;6.17;85.49
71291;DHT22;59073;51.994;4.448;2022-12-05T07:27:04;6.29;85.08
71291;DHT22;59073;51.994;4.448;2022-12-05T07:29:30;6.34;85.08
71291;DHT22;59073;51.994;4.448;2022-12-05T07:31:56;6.48;84.79
71291;DHT22;59073;51.994;4.448;2022-12-05T07:34:21;6.39;85.10
71291;DHT22;59073;51.994;4.448;2022-12-05T07:36:47;6.49;84.64
71291;DHT22;59073;51.994;4.448;2022-12-05T07:39:12;6.52;84.37
71291;DHT22;59073;51.994;4.448;2022-12-05T07:41:37;6.32;85.23
71291;DHT22;59073;51.994;4.448;2022-12-05T07:44:03;6.41;85.11
71291;DHT22;59073;51.994;4.448;2022-12-05T07:46:29;6.36;85.30
71291;DHT22;59073;51.994;4.448;2022-12-05T07:48:54;6.32;85.50
71291;DHT22;59073;51.994;4.448;2022-12-05T07:51:20;6.32;85.45
71291;DHT22;59073;51.994;4.448;2022-12-05T07:53:46;6.52;85.00
71291;DHT22;59073;51.994;4.448;2022-12-05T07:56:14;6.45;85.04
71291;DHT22;59073;51.994;4.448;2022-12-05T07:58:42;6.35;85.48
71291;DHT22;59073;51.994;4.448;2022-12-05T08:01:11;6.42;85.48
71291;DHT22;59073;51.994;4.448;2022-12-05T08:03:37;6.39;85.07
71291;DHT22;59073;51.994;4.448;2022-12-05T08:06:04;6.45;85.11
71291;DHT22;59073;51.994;4.448;2022-12-05T08:08:30;6.38;85.48
71291;DHT22;59073;51.994;4.448;2022-12-05T08:11:01;6.41;85.29
71291;DHT22;59073;51.994;4.448;2022-12-05T08:13:28;6.38;85.26
71291;DHT22;59073;51.994;4.448;2022-12-05T08:15:53;6.45;85.20
71291;DHT22;59073;51.994;4.448;2022-12-05T08:18:18;6.64;84.95
71291;DHT22;59073;51.994;4.448;2022-12-05T08:20:44;6.49;84.70
71291;DHT22;59073;51.994;4.448;2022-12-05T08:23:09;6.59;84.93
71291;DHT22;59073;51.994;4.448;2022-12-05T08:25:35;6.62;84.75
71291;DHT22;59073;51.994;4.448;2022-12-05T08:28:00;6.62;84.58
71291;DHT22;59073;51.994;4.448;2022-12-05T08:30:26;6.55;84.80
71291;DHT22;59073;51.994;4.448;2022-12-05T08:32:51;6.59;84.64
71291;DHT22;59073;51.994;4.448;2022-12-05T08:35:17;6.56;84.80
71291;DHT22;59073;51.994;4.448;2022-12-05T08:37:42;6.58;84.57
71291;DHT22;59073;51.994;4.448;2022-12-05T08:40:08;6.76;84.13
71291;DHT22;59073;51.994;4.448;2022-12-05T08:42:33;6.69;84.40
71291;DHT22;59073;51.994;4.448;2022-12-05T08:44:59;6.59;84.29
71291;DHT22;59073;51.994;4.448;2022-12-05T08:47:33;6.61;84.40
71291;DHT22;59073;51.994;4.448;2022-12-05T08:49:58;6.61;84.35
71291;DHT22;59073;51.994;4.448;2022-12-05T08:52:24;6.59;84.58
71291;DHT22;59073;51.994;4.448;2022-12-05T08:54:49;6.58;84.84
71291;DHT22;59073;51.994;4.448;2022-12-05T08:57:15;6.64;84.56
71291;DHT22;59073;51.994;4.448;2022-12-05T08:59:41;6.61;84.32
71291;DHT22;59073;51.994;4.448;2022-12-05T09:02:07;6.68;84.51
71291;DHT22;59073;51.994;4.448;2022-12-05T09:04:33;6.64;84.24
71291;DHT22;59073;51.994;4.448;2022-12-05T09:07:01;6.68;84.44
71291;DHT22;59073;51.994;4.448;2022-12-05T09:09:28;6.69;84.02
71291;DHT22;59073;51.994;4.448;2022-12-05T09:11:53;6.69;84.18
71291;DHT22;59073;51.994;4.448;2022-12-05T09:14:18;6.79;83.89
71291;DHT22;59073;51.994;4.448;2022-12-05T09:16:46;6.95;83.45
71291;DHT22;59073;51.994;4.448;2022-12-05T09:19:20;6.96;83.21
71291;DHT22;59073;51.994;4.448;2022-12-05T09:21:47;7.11;82.94
71291;DHT22;59073;51.994;4.448;2022-12-05T09:24:13;6.95;83.42
71291;DHT22;59073;51.994;4.448;2022-12-05T09:26:40;6.96;83.34
71291;DHT22;59073;51.994;4.448;2022-12-05T09:29:05;6.90;83.74
71291;DHT22;59073;51.994;4.448;2022-12-05T09:31:33;6.79;83.78
71291;DHT22;59073;51.994;4.448;2022-12-05T09:33:59;6.82;83.99
71291;DHT22;59073;51.994;4.448;2022-12-05T09:36:27;7.00;83.72
71291;DHT22;59073;51.994;4.448;2022-12-05T09:38:54;6.86;84.19
71291;DHT22;59073;51.994;4.448;2022-12-05T09:50:02;6.82;84.28
71291;DHT22;59073;51.994;4.448;2022-12-05T09:52:32;6.82;84.46
71291;DHT22;59073;51.994;4.448;2022-12-05T09:55:14;6.79;84.63
71291;DHT22;59073;51.994;4.448;2022-12-05T09:57:46;6.89;84.18
71291;DHT22;59073;51.994;4.448;2022-12-05T10:00:13;6.89;83.99
71291;DHT22;59073;51.994;4.448;2022-12-05T10:02:43;6.80;84.43
71291;DHT22;59073;51.994;4.448;2022-12-05T10:08:09;6.92;84.26
71291;DHT22;59073;51.994;4.448;2022-12-05T10:13:44;6.90;84.24
71291;DHT22;59073;51.994;4.448;2022-12-05T10:16:18;6.96;84.16
71291;DHT22;59073;51.994;4.448;2022-12-05T10:18:53;6.96;84.18
71291;DHT22;59073;51.994;4.448;2022-12-05T10:21:32;6.83;84.33
71291;DHT22;59073;51.994;4.448;2022-12-05T10:24:04;6.83;84.43
71291;DHT22;59073;51.994;4.448;2022-12-05T10:26:43;6.97;84.23
71291;DHT22;59073;51.994;4.448;2022-12-05T10:29:34;6.80;84.59
71291;DHT22;59073;51.994;4.448;2022-12-05T10:32:14;6.82;84.65
71291;DHT22;59073;51.994;4.448;2022-12-05T10:34:43;6.87;84.70
71291;DHT22;59073;51.994;4.448;2022-12-05T10:37:19;6.79;84.93
71291;DHT22;59073;51.994;4.448;2022-12-05T10:39:46;7.03;84.41
71291;DHT22;59073;51.994;4.448;2022-12-05T10:42:20;7.04;84.36
71291;DHT22;59073;51.994;4.448;2022-12-05T10:44:58;7.07;84.57
71291;DHT22;59073;51.994;4.448;2022-12-05T10:47:24;7.08;84.47
71291;DHT22;59073;51.994;4.448;2022-12-05T10:49:51;7.03;84.79
71291;DHT22;59073;51.994;4.448;2022-12-05T10:52:17;7.03;84.79
71291;DHT22;59073;51.994;4.448;2022-12-05T10:54:50;6.92;84.75
71291;DHT22;59073;51.994;4.448;2022-12-05T10:57:23;6.86;85.16
71291;DHT22;59073;51.994;4.448;2022-12-05T10:59:49;7.00;85.18
71291;DHT22;59073;51.994;4.448;2022-12-05T11:02:33;6.89;85.46
71291;DHT22;59073;51.994;4.448;2022-12-05T11:05:02;6.95;85.22
71291;DHT22;59073;51.994;4.448;2022-12-05T11:07:49;6.93;85.31
71291;DHT22;59073;51.994;4.448;2022-12-05T11:10:30;6.83;85.77
71291;DHT22;59073;51.994;4.448;2022-12-05T11:12:58;6.86;85.49
71291;DHT22;59073;51.994;4.448;2022-12-05T11:15:27;6.95;85.22
71291;DHT22;59073;51.994;4.448;2022-12-05T11:17:55;6.79;85.69
71291;DHT22;59073;51.994;4.448;2022-12-05T11:22:49;6.66;86.12
71291;DHT22;59073;51.994;4.448;2022-12-05T11:27:54;6.90;85.47
71291;DHT22;59073;51.994;4.448;2022-12-05T11:30:21;6.75;86.06
71291;DHT22;59073;51.994;4.448;2022-12-05T11:32:48;6.99;85.63
71291;DHT22;59073;51.994;4.448;2022-12-05T11:37:48;6.89;85.60
71291;DHT22;59073;51.994;4.448;2022-12-05T11:43:37;6.73;85.90
71291;DHT22;59073;51.994;4.448;2022-12-05T11:56:57;7.04;85.30
71291;DHT22;59073;51.994;4.448;2022-12-05T12:02:36;7.13;84.75
71291;DHT22;59073;51.994;4.448;2022-12-05T12:05:17;7.08;84.89
71291;DHT22;59073;51.994;4.448;2022-12-05T12:10:56;7.38;84.14
71291;DHT22;59073;51.994;4.448;2022-12-05T12:13:50;7.37;83.83
71291;DHT22;59073;51.994;4.448;2022-12-05T12:19:50;7.31;84.01
71291;DHT22;59073;51.994;4.448;2022-12-05T12:22:29;7.20;83.77
71291;DHT22;59073;51.994;4.448;2022-12-05T12:25:21;7.26;84.09
71291;DHT22;59073;51.994;4.448;2022-12-05T12:33:35;7.26;84.30
71291;DHT22;59073;51.994;4.448;2022-12-05T12:36:17;7.24;84.22
71291;DHT22;59073;51.994;4.448;2022-12-05T12:39:32;7.24;84.06
71291;DHT22;59073;51.994;4.448;2022-12-05T12:45:05;7.17;84.43
71291;DHT22;59073;51.994;4.448;2022-12-05T12:50:21;7.40;83.88
71291;DHT22;59073;51.994;4.448;2022-12-05T12:53:07;7.27;83.92
71291;DHT22;59073;51.994;4.448;2022-12-05T13:04:16;7.26;84.15
71291;DHT22;59073;51.994;4.448;2022-12-05T13:06:59;7.32;84.29
71291;DHT22;59073;51.994;4.448;2022-12-05T13:11:57;7.31;83.98
71291;DHT22;59073;51.994;4.448;2022-12-05T13:14:25;7.11;84.95
71291;DHT22;59073;51.994;4.448;2022-12-05T13:16:53;7.13;85.08
71291;DHT22;59073;51.994;4.448;2022-12-05T13:19:27;7.32;84.45
71291;DHT22;59073;51.994;4.448;2022-12-05T13:21:56;7.17;84.80
71291;DHT22;59073;51.994;4.448;2022-12-05T13:24:26;7.14;84.86
71291;DHT22;59073;51.994;4.448;2022-12-05T13:26:52;7.21;84.78
71291;DHT22;59073;51.994;4.448;2022-12-05T13:29:32;7.30;84.46
71291;DHT22;59073;51.994;4.448;2022-12-05T13:32:01;7.28;84.18
71291;DHT22;59073;51.994;4.448;2022-12-05T13:37:09;7.44;84.40
71291;DHT22;59073;51.994;4.448;2022-12-05T13:39:55;7.45;83.87
71291;DHT22;59073;51.994;4.448;2022-12-05T13:42:40;7.45;83.86
71291;DHT22;59073;51.994;4.448;2022-12-05T13:45:13;7.45;83.87
71291;DHT22;59073;51.994;4.448;2022-12-05T13:53:04;7.34;83.91
71291;DHT22;59073;51.994;4.448;2022-12-05T13:55:33;7.43;83.97
71291;DHT22;59073;51.994;4.448;2022-12-05T14:00:49;7.47;83.61
71291;DHT22;59073;51.994;4.448;2022-12-05T14:05:59;7.35;83.61
71291;DHT22;59073;51.994;4.448;2022-12-05T14:15:52;7.43;83.58
71291;DHT22;59073;51.994;4.448;2022-12-05T14:18:46;7.44;83.26
71291;DHT22;59073;51.994;4.448;2022-12-05T14:21:21;7.31;83.08
71291;DHT22;59073;51.994;4.448;2022-12-05T14:24:13;7.31;83.31
71291;DHT22;59073;51.994;4.448;2022-12-05T14:29:53;7.35;83.12
71291;DHT22;59073;51.994;4.448;2022-12-05T14:32:27;7.40;83.17
71291;DHT22;59073;51.994;4.448;2022-12-05T14:34:57;7.28;83.25
71291;DHT22;59073;51.994;4.448;2022-12-05T14:39:55;7.43;82.82
71291;DHT22;59073;51.994;4.448;2022-12-05T14:42:36;7.44;83.39
71291;DHT22;59073;51.994;4.448;2022-12-05T14:45:22;7.43;82.91
71291;DHT22;59073;51.994;4.448;2022-12-05T14:47:58;7.44;82.88
71291;DHT22;59073;51.994;4.448;2022-12-05T14:50:41;7.38;83.26
71291;DHT22;59073;51.994;4.448;2022-12-05T14:53:30;7.38;82.83
71291;DHT22;59073;51.994;4.448;2022-12-05T14:56:06;7.44;82.84
71291;DHT22;59073;51.994;4.448;2022-12-05T15:01:15;7.41;82.85
71291;DHT22;59073;51.994;4.448;2022-12-05T15:04:04;7.23;83.35
71291;DHT22;59073;51.994;4.448;2022-12-05T15:06:34;7.14;83.62
71291;DHT22;59073;51.994;4.448;2022-12-05T15:09:05;7.26;83.40
71291;DHT22;59073;51.994;4.448;2022-12-05T15:11:33;7.47;83.12
71291;DHT22;59073;51.994;4.448;2022-12-05T15:14:20;7.40;83.21
71291;DHT22;59073;51.994;4.448;2022-12-05T15:16:49;7.44;82.91
71291;DHT22;59073;51.994;4.448;2022-12-05T15:19:26;7.38;83.15
71291;DHT22;59073;51.994;4.448;2022-12-05T15:22:08;7.52;83.20
71291;DHT22;59073;51.994;4.448;2022-12-05T15:24:43;7.44;83.22
71291;DHT22;59073;51.994;4.448;2022-12-05T15:27:10;7.38;83.23
71291;DHT22;59073;51.994;4.448;2022-12-05T15:29:59;7.48;82.83
71291;DHT22;59073;51.994;4.448;2022-12-05T15:32:26;7.30;83.50
71291;DHT22;59073;51.994;4.448;2022-12-05T15:35:05;7.35;83.50
71291;DHT22;59073;51.994;4.448;2022-12-05T15:37:51;7.44;83.18
71291;DHT22;59073;51.994;4.448;2022-12-05T15:40:20;7.41;83.04
71291;DHT22;59073;51.994;4.448;2022-12-05T15:42:54;7.23;83.53
71291;DHT22;59073;51.994;4.448;2022-12-05T15:45:24;7.43;83.27
71291;DHT22;59073;51.994;4.448;2022-12-05T15:47:55;7.31;83.54
71291;DHT22;59073;51.994;4.448;2022-12-05T15:50:29;7.18;84.15
71291;DHT22;59073;51.994;4.448;2022-12-05T15:52:57;7.28;83.80
71291;DHT22;59073;51.994;4.448;2022-12-05T15:55:31;7.20;84.40
71291;DHT22;59073;51.994;4.448;2022-12-05T15:58:19;7.20;84.34
71291;DHT22;59073;51.994;4.448;2022-12-05T16:00:53;7.38;83.95
71291;DHT22;59073;51.994;4.448;2022-12-05T16:03:36;7.45;83.92
71291;DHT22;59073;51.994;4.448;2022-12-05T16:06:10;7.41;83.71
71291;DHT22;59073;51.994;4.448;2022-12-05T16:08:43;7.50;83.57
71291;DHT22;59073;51.994;4.448;2022-12-05T16:11:10;7.41;83.69
71291;DHT22;59073;51.994;4.448;2022-12-05T16:13:51;7.30;84.03
71291;DHT22;59073;51.994;4.448;2022-12-05T16:16:22;7.21;84.34
71291;DHT22;59073;51.994;4.448;2022-12-05T16:18:53;7.11;84.72
71291;DHT22;59073;51.994;4.448;2022-12-05T16:21:30;7.14;84.82
71291;DHT22;59073;51.994;4.448;2022-12-05T16:24:20;7.27;84.54
71291;DHT22;59073;51.994;4.448;2022-12-05T16:27:11;7.11;84.74
71291;DHT22;59073;51.994;4.448;2022-12-05T16:29:38;7.20;84.53
71291;DHT22;59073;51.994;4.448;2022-12-05T16:32:30;7.11;84.85
71291;DHT22;59073;51.994;4.448;2022-12-05T16:38:29;7.13;84.95
71291;DHT22;59073;51.994;4.448;2022-12-05T16:41:02;7.20;84.79
71291;DHT22;59073;51.994;4.448;2022-12-05T16:43:41;7.16;85.24
71291;DHT22;59073;51.994;4.448;2022-12-05T16:48:36;7.14;85.13
71291;DHT22;59073;51.994;4.448;2022-12-05T16:51:23;7.16;85.20
71291;DHT22;59073;51.994;4.448;2022-12-05T16:53:54;7.14;85.23
71291;DHT22;59073;51.994;4.448;2022-12-05T16:56:29;7.13;85.51
71291;DHT22;59073;51.994;4.448;2022-12-05T16:58:56;7.18;85.47
71291;DHT22;59073;51.994;4.448;2022-12-05T17:01:24;7.16;85.53
71291;DHT22;59073;51.994;4.448;2022-12-05T17:03:51;6.96;86.13
71291;DHT22;59073;51.994;4.448;2022-12-05T17:06:19;6.99;86.19
71291;DHT22;59073;51.994;4.448;2022-12-05T17:08:45;7.03;86.19
71291;DHT22;59073;51.994;4.448;2022-12-05T17:11:29;7.06;86.17
71291;DHT22;59073;51.994;4.448;2022-12-05T17:13:57;7.17;85.82
71291;DHT22;59073;51.994;4.448;2022-12-05T17:16:24;7.07;85.99
71291;DHT22;59073;51.994;4.448;2022-12-05T17:18:50;7.08;86.05
71291;DHT22;59073;51.994;4.448;2022-12-05T17:21:25;7.07;86.08
71291;DHT22;59073;51.994;4.448;2022-12-05T17:23:53;7.13;85.77
71291;DHT22;59073;51.994;4.448;2022-12-05T17:26:20;7.20;85.57
71291;DHT22;59073;51.994;4.448;2022-12-05T17:28:46;7.17;85.62
71291;DHT22;59073;51.994;4.448;2022-12-05T17:31:14;7.17;85.52
71291;DHT22;59073;51.994;4.448;2022-12-05T17:33:41;7.20;85.50
71291;DHT22;59073;51.994;4.448;2022-12-05T17:36:08;7.21;85.48
71291;DHT22;59073;51.994;4.448;2022-12-05T17:38:34;7.10;85.50
71291;DHT22;59073;51.994;4.448;2022-12-05T17:41:00;7.20;85.43
71291;DHT22;59073;51.994;4.448;2022-12-05T17:43:28;7.14;85.29
71291;DHT22;59073;51.994;4.448;2022-12-05T17:45:54;7.23;85.03
71291;DHT22;59073;51.994;4.448;2022-12-05T17:48:20;7.18;84.95
71291;DHT22;59073;51.994;4.448;2022-12-05T17:50:47;7.14;85.55
71291;DHT22;59073;51.994;4.448;2022-12-05T17:53:18;7.17;85.13
71291;DHT22;59073;51.994;4.448;2022-12-05T17:55:44;7.18;84.87
71291;DHT22;59073;51.994;4.448;2022-12-05T17:58:13;7.11;85.44
71291;DHT22;59073;51.994;4.448;2022-12-05T18:00:40;7.16;85.40
71291;DHT22;59073;51.994;4.448;2022-12-05T18:03:10;7.23;84.81
71291;DHT22;59073;51.994;4.448;2022-12-05T18:05:36;7.26;84.91
71291;DHT22;59073;51.994;4.448;2022-12-05T18:08:01;7.20;84.96
71291;DHT22;59073;51.994;4.448;2022-12-05T18:10:27;7.24;85.36
71291;DHT22;59073;51.994;4.448;2022-12-05T18:12:52;7.20;84.97
71291;DHT22;59073;51.994;4.448;2022-12-05T18:15:18;7.20;85.17
71291;DHT22;59073;51.994;4.448;2022-12-05T18:17:43;7.06;85.56
71291;DHT22;59073;51.994;4.448;2022-12-05T18:20:11;7.21;85.44
71291;DHT22;59073;51.994;4.448;2022-12-05T18:22:38;7.14;85.61
71291;DHT22;59073;51.994;4.448;2022-12-05T18:25:04;7.13;85.88